createdAt,value
2023-04-22T00:00:19.361Z,16.40
2023-04-22T00:02:49.077Z,16.45
2023-04-22T00:05:20.520Z,16.85
2023-04-22T00:07:53.034Z,16.88
2023-04-22T00:10:22.530Z,17.42
2023-04-22T00:12:52.052Z,17.30
2023-04-22T00:15:22.268Z,15.57
2023-04-22T00:17:52.180Z,17.58
2023-04-22T00:20:23.523Z,19.88
2023-04-22T00:22:55.635Z,16.73
2023-04-22T00:25:25.115Z,19.73
2023-04-22T00:27:54.650Z,18.58
2023-04-22T00:30:24.200Z,17.70
2023-04-22T00:32:53.746Z,18.25
2023-04-22T00:35:23.339Z,20.90
2023-04-22T00:37:55.507Z,20.75
2023-04-22T00:40:25.326Z,17.42
2023-04-22T00:42:54.899Z,23.08
2023-04-22T00:45:24.509Z,25.08
2023-04-22T00:47:54.956Z,18.35
2023-04-22T00:50:24.500Z,20.48
2023-04-22T00:52:56.652Z,21.45
2023-04-22T00:55:26.599Z,21.02
2023-04-22T00:57:59.540Z,24.95
2023-04-22T01:00:30.366Z,22.48
2023-04-22T01:03:01.068Z,24.10
2023-04-22T01:05:33.725Z,24.10
2023-04-22T01:08:06.262Z,23.70
2023-04-22T01:10:36.198Z,21.65
2023-04-22T01:13:05.914Z,25.13
2023-04-22T01:15:35.819Z,26.27
2023-04-22T01:18:05.550Z,21.20
2023-04-22T01:20:35.144Z,23.20
2023-04-22T01:23:11.951Z,26.17
2023-04-22T01:25:44.085Z,23.15
2023-04-22T01:28:13.946Z,23.13
2023-04-22T01:30:44.578Z,21.95
2023-04-22T01:33:14.853Z,23.33
2023-04-22T01:35:44.539Z,25.38
2023-04-22T01:38:15.583Z,22.52
2023-04-22T01:40:47.692Z,22.75
2023-04-22T01:43:17.203Z,23.40
2023-04-22T01:45:46.965Z,22.02
2023-04-22T01:48:16.616Z,22.17
2023-04-22T01:50:46.208Z,23.35
2023-04-22T01:53:15.860Z,21.58
2023-04-22T01:55:48.001Z,21.00
2023-04-22T01:58:17.632Z,20.27
2023-04-22T02:00:47.881Z,19.52
2023-04-22T02:03:17.433Z,20.70
2023-04-22T02:05:47.115Z,22.75
2023-04-22T02:08:16.625Z,22.40
2023-04-22T02:10:48.792Z,21.88
2023-04-22T02:13:18.386Z,24.17
2023-04-22T02:15:48.080Z,22.17
2023-04-22T02:18:18.121Z,25.20
2023-04-22T02:20:47.747Z,21.77
2023-04-22T02:23:17.320Z,21.13
2023-04-22T02:25:54.824Z,23.88
2023-04-22T02:28:24.375Z,21.42
2023-04-22T02:30:53.927Z,22.70
2023-04-22T02:33:23.546Z,22.98
2023-04-22T02:35:53.089Z,23.23
2023-04-22T02:38:22.728Z,19.58
2023-04-22T02:40:54.829Z,20.88
2023-04-22T02:43:24.428Z,18.48
2023-04-22T02:45:53.971Z,24.65
2023-04-22T02:48:23.506Z,20.75
2023-04-22T02:50:53.848Z,21.52
2023-04-22T02:53:23.376Z,24.67
2023-04-22T02:55:55.918Z,20.95
2023-04-22T02:58:26.337Z,22.83
2023-04-22T03:00:57.038Z,21.40
2023-04-22T03:03:27.085Z,24.55
2023-04-22T03:05:56.807Z,18.80
2023-04-22T03:08:26.557Z,25.75
2023-04-22T03:10:58.726Z,21.85
2023-04-22T03:13:28.267Z,17.65
2023-04-22T03:15:57.821Z,23.00
2023-04-22T03:18:27.383Z,20.15
2023-04-22T03:20:56.907Z,23.63
2023-04-22T03:23:26.448Z,23.92
2023-04-22T03:25:58.550Z,21.17
2023-04-22T03:28:28.090Z,24.98
2023-04-22T03:30:57.632Z,25.45
2023-04-22T03:33:27.491Z,23.70
2023-04-22T03:35:57.519Z,24.08
2023-04-22T03:38:27.351Z,24.85
2023-04-22T03:40:59.468Z,22.77
2023-04-22T03:43:29.030Z,23.85
2023-04-22T03:45:58.610Z,24.02
2023-04-22T03:48:29.208Z,23.52
2023-04-22T03:50:58.763Z,23.98
2023-04-22T03:53:28.315Z,22.65
2023-04-22T03:56:00.662Z,24.80
2023-04-22T03:58:30.200Z,23.27
2023-04-22T04:00:59.728Z,22.42
2023-04-22T04:03:30.999Z,22.83
2023-04-22T04:06:00.854Z,22.80
2023-04-22T04:08:30.945Z,23.05
2023-04-22T04:11:03.063Z,20.63
2023-04-22T04:13:32.723Z,18.15
2023-04-22T04:16:02.460Z,18.05
2023-04-22T04:18:32.907Z,23.15
2023-04-22T04:21:02.459Z,24.90
2023-04-22T04:23:32.325Z,35.35
2023-04-22T04:26:05.845Z,25.67
2023-04-22T04:28:36.324Z,18.98
2023-04-22T04:31:06.047Z,20.23
2023-04-22T04:33:37.162Z,17.85
2023-04-22T04:36:08.962Z,18.58
2023-04-22T04:38:39.210Z,17.05
2023-04-22T04:41:11.492Z,16.95
2023-04-22T04:43:41.048Z,19.48
2023-04-22T04:46:11.146Z,19.30
2023-04-22T04:48:42.498Z,31.17
2023-04-22T04:51:12.737Z,29.48
2023-04-22T04:53:43.744Z,22.70
2023-04-22T04:56:17.011Z,19.80
2023-04-22T04:58:46.540Z,18.33
2023-04-22T05:01:16.137Z,17.50
2023-04-22T05:03:45.862Z,15.85
2023-04-22T05:06:15.493Z,17.17
2023-04-22T05:08:45.066Z,30.58
2023-04-22T05:11:17.214Z,46.45
2023-04-22T05:13:48.006Z,52.72
2023-04-22T05:16:17.731Z,42.13
2023-04-22T05:18:47.299Z,21.70
2023-04-22T05:21:17.025Z,19.13
2023-04-22T05:23:46.560Z,16.67
2023-04-22T05:26:18.812Z,14.82
2023-04-22T05:28:48.350Z,15.98
2023-04-22T05:31:17.939Z,13.85
2023-04-22T05:33:47.480Z,17.13
2023-04-22T05:36:17.164Z,17.25
2023-04-22T05:38:46.703Z,17.30
2023-04-22T05:41:18.890Z,17.05
2023-04-22T05:43:48.470Z,20.35
2023-04-22T05:46:18.101Z,14.93
2023-04-22T05:48:49.139Z,17.10
2023-04-22T05:51:18.767Z,16.27
2023-04-22T05:53:48.332Z,19.08
2023-04-22T05:56:21.172Z,16.33
2023-04-22T05:58:50.686Z,18.40
2023-04-22T06:01:20.304Z,16.48
2023-04-22T06:03:50.065Z,14.18
2023-04-22T06:06:20.077Z,14.77
2023-04-22T06:08:49.620Z,15.05
2023-04-22T06:11:22.251Z,17.13
2023-04-22T06:13:52.014Z,15.15
2023-04-22T06:16:21.602Z,14.68
2023-04-22T06:18:51.263Z,14.48
2023-04-22T06:21:20.846Z,16.55
2023-04-22T06:23:50.450Z,18.17
2023-04-22T06:26:22.776Z,17.40
2023-04-22T06:28:52.456Z,13.35
2023-04-22T06:31:22.100Z,17.60
2023-04-22T06:33:51.786Z,21.85
2023-04-22T06:36:21.366Z,16.60
2023-04-22T06:38:50.872Z,16.27
2023-04-22T06:41:24.000Z,10.15
2023-04-22T06:43:53.592Z,17.80
2023-04-22T06:46:23.168Z,15.75
2023-04-22T06:48:52.802Z,16.23
2023-04-22T06:51:22.559Z,17.05
2023-04-22T06:53:52.090Z,14.68
2023-04-22T06:56:24.247Z,20.08
2023-04-22T06:58:53.867Z,19.15
2023-04-22T07:01:23.407Z,14.13
2023-04-22T07:03:53.053Z,13.52
2023-04-22T07:06:22.707Z,14.90
2023-04-22T07:08:52.309Z,14.57
2023-04-22T07:11:24.501Z,14.98
2023-04-22T07:13:54.045Z,14.70
2023-04-22T07:16:23.612Z,14.23
2023-04-22T07:18:53.393Z,14.77
2023-04-22T07:21:23.091Z,15.57
2023-04-22T07:23:52.801Z,13.35
2023-04-22T07:26:24.969Z,14.85
2023-04-22T07:28:54.704Z,15.82
2023-04-22T07:31:24.278Z,13.70
2023-04-22T07:33:53.852Z,19.77
2023-04-22T07:36:23.659Z,14.13
2023-04-22T07:38:53.239Z,14.75
2023-04-22T07:41:25.337Z,13.52
2023-04-22T07:43:55.638Z,15.73
2023-04-22T07:46:25.199Z,14.88
2023-04-22T07:48:54.785Z,14.68
2023-04-22T07:51:25.958Z,13.15
2023-04-22T07:53:55.630Z,12.50
2023-04-22T07:56:27.734Z,11.77
2023-04-22T07:58:57.298Z,12.27
2023-04-22T08:01:26.842Z,12.20
2023-04-22T08:03:56.468Z,12.73
2023-04-22T08:06:26.293Z,14.10
2023-04-22T08:08:55.887Z,10.85
2023-04-22T08:11:28.122Z,12.63
2023-04-22T08:13:57.710Z,10.80
2023-04-22T08:16:27.449Z,11.85
2023-04-22T08:18:57.962Z,6.55
2023-04-22T08:21:27.556Z,12.43
2023-04-22T08:23:57.114Z,14.30
2023-04-22T08:26:29.338Z,8.93
2023-04-22T08:28:59.060Z,12.30
2023-04-22T08:31:28.622Z,11.52
2023-04-22T08:33:58.636Z,12.77
2023-04-22T08:36:28.594Z,10.90
2023-04-22T08:38:58.180Z,6.03
2023-04-22T08:41:30.791Z,11.52
2023-04-22T08:44:00.698Z,9.48
2023-04-22T08:46:30.475Z,10.60
2023-04-22T08:49:04.020Z,10.50
2023-04-22T08:51:35.118Z,10.10
2023-04-22T08:54:04.817Z,11.48
2023-04-22T08:56:38.225Z,11.38
2023-04-22T08:59:08.059Z,10.20
2023-04-22T09:01:38.680Z,10.30
2023-04-22T09:04:09.313Z,10.52
2023-04-22T09:06:41.309Z,10.30
2023-04-22T09:09:11.620Z,9.80
2023-04-22T09:11:44.212Z,9.20
2023-04-22T09:14:13.753Z,13.80
2023-04-22T09:16:44.935Z,11.48
2023-04-22T09:19:15.916Z,9.60
2023-04-22T09:21:49.096Z,11.65
2023-04-22T09:24:20.850Z,11.32
2023-04-22T09:26:53.008Z,8.98
2023-04-22T09:29:22.594Z,9.48
2023-04-22T09:31:53.288Z,10.10
2023-04-22T09:34:25.059Z,10.15
2023-04-22T09:36:54.638Z,11.32
2023-04-22T09:39:26.477Z,10.38
2023-04-22T09:42:00.054Z,9.35
2023-04-22T09:44:30.533Z,7.68
2023-04-22T09:47:00.106Z,10.57
2023-04-22T09:49:30.624Z,11.50
2023-04-22T09:52:00.733Z,9.00
2023-04-22T09:54:30.270Z,10.13
2023-04-22T09:57:02.671Z,8.13
2023-04-22T09:59:33.064Z,10.80
2023-04-22T10:02:04.773Z,7.07
2023-04-22T10:04:34.867Z,10.38
2023-04-22T10:07:04.695Z,8.30
2023-04-22T10:09:34.385Z,8.07
2023-04-22T10:12:07.931Z,8.45
2023-04-22T10:14:37.455Z,7.85
2023-04-22T10:17:08.433Z,9.15
2023-04-22T10:19:38.890Z,7.72
2023-04-22T10:22:10.640Z,7.75
2023-04-22T10:24:41.048Z,8.20
2023-04-22T10:27:13.696Z,9.55
2023-04-22T10:29:44.214Z,8.82
2023-04-22T10:32:29.231Z,8.98
2023-04-22T10:35:15.276Z,6.95
2023-04-22T10:40:19.111Z,8.45
2023-04-22T10:42:56.059Z,9.18
2023-04-22T10:45:27.943Z,8.35
2023-04-22T10:47:57.579Z,10.15
2023-04-22T10:50:28.793Z,8.50
2023-04-22T10:53:00.474Z,8.60
2023-04-22T10:55:53.683Z,8.80
2023-04-22T10:58:27.506Z,5.28
2023-04-22T11:01:03.310Z,9.43
2023-04-22T11:03:33.608Z,8.60
2023-04-22T11:06:19.821Z,9.15
2023-04-22T11:08:50.631Z,6.53
2023-04-22T11:11:21.432Z,8.65
2023-04-22T11:13:53.723Z,10.20
2023-04-22T11:16:25.169Z,8.95
2023-04-22T11:18:55.399Z,6.90
2023-04-22T11:21:26.338Z,7.40
2023-04-22T11:23:57.163Z,8.00
2023-04-22T11:26:37.816Z,7.95
2023-04-22T11:29:11.400Z,7.05
2023-04-22T11:31:41.018Z,8.30
2023-04-22T11:34:12.129Z,8.77
2023-04-22T11:36:45.627Z,8.00
2023-04-22T11:39:16.941Z,6.28
2023-04-22T11:41:46.636Z,5.07
2023-04-22T11:44:19.551Z,4.95
2023-04-22T11:46:49.074Z,6.70
2023-04-22T11:49:19.833Z,6.90
2023-04-22T11:51:57.242Z,7.95
2023-04-22T11:54:34.298Z,6.82
2023-04-22T11:57:05.846Z,7.68
2023-04-22T11:59:38.275Z,8.57
2023-04-22T12:02:08.668Z,8.93
2023-04-22T12:04:42.679Z,8.02
2023-04-22T12:07:12.291Z,8.55
2023-04-22T12:09:42.382Z,7.47
2023-04-22T12:12:12.111Z,9.10
2023-04-22T12:14:48.524Z,9.95
2023-04-22T12:17:20.198Z,11.55
2023-04-22T12:19:50.461Z,7.75
2023-04-22T12:22:27.088Z,8.30
2023-04-22T12:24:56.933Z,6.85
2023-04-22T12:27:26.510Z,8.63
2023-04-22T12:29:59.408Z,8.43
2023-04-22T12:32:29.962Z,9.10
2023-04-22T12:34:59.478Z,6.85
2023-04-22T12:37:29.020Z,7.85
2023-04-22T12:39:58.549Z,8.73
2023-04-22T12:42:28.106Z,8.27
2023-04-22T12:45:00.233Z,10.05
2023-04-22T12:47:29.853Z,7.43
2023-04-22T12:50:01.444Z,9.57
2023-04-22T12:52:31.423Z,10.25
2023-04-22T12:55:00.932Z,6.68
2023-04-22T12:57:30.518Z,9.30
2023-04-22T13:00:04.440Z,8.75
2023-04-22T13:02:34.143Z,9.15
2023-04-22T13:05:03.757Z,8.77
2023-04-22T13:07:35.483Z,5.63
2023-04-22T13:10:05.215Z,8.48
2023-04-22T13:12:35.878Z,8.48
2023-04-22T13:15:11.040Z,8.00
2023-04-22T13:17:41.240Z,7.75
2023-04-22T13:20:14.261Z,7.60
2023-04-22T13:22:44.212Z,6.95
2023-04-22T13:25:13.950Z,6.32
2023-04-22T13:27:43.477Z,8.82
2023-04-22T13:30:16.895Z,5.53
2023-04-22T13:32:46.520Z,4.22
2023-04-22T13:35:18.231Z,6.55
2023-04-22T13:37:47.785Z,6.18
2023-04-22T13:40:17.370Z,5.25
2023-04-22T13:42:47.065Z,5.95
2023-04-22T13:45:19.277Z,7.00
2023-04-22T13:47:48.962Z,9.32
2023-04-22T13:50:18.515Z,6.47
2023-04-22T13:52:48.238Z,6.10
2023-04-22T13:55:17.791Z,6.30
2023-04-22T13:57:47.855Z,6.53
2023-04-22T14:00:21.049Z,8.02
2023-04-22T14:02:51.041Z,7.55
2023-04-22T14:05:20.823Z,6.90
2023-04-22T14:07:50.392Z,8.50
2023-04-22T14:10:20.542Z,6.32
2023-04-22T14:12:50.348Z,8.05
2023-04-22T14:15:22.726Z,8.05
2023-04-22T14:17:52.227Z,5.68
2023-04-22T14:20:21.796Z,7.40
2023-04-22T14:22:51.339Z,5.85
2023-04-22T14:25:21.118Z,8.20
2023-04-22T14:27:50.717Z,8.52
2023-04-22T14:30:23.128Z,10.20
2023-04-22T14:32:53.262Z,6.38
2023-04-22T14:35:22.930Z,5.97
2023-04-22T14:37:52.539Z,7.85
2023-04-22T14:40:26.300Z,9.02
2023-04-22T14:42:55.983Z,9.02
2023-04-22T14:45:29.025Z,5.45
2023-04-22T14:47:58.801Z,8.25
2023-04-22T14:50:28.942Z,7.13
2023-04-22T14:52:59.099Z,9.23
2023-04-22T14:55:29.321Z,7.40
2023-04-22T14:57:59.575Z,6.43
2023-04-22T15:00:32.284Z,5.88
2023-04-22T15:03:02.018Z,6.50
2023-04-22T15:05:31.680Z,5.95
2023-04-22T15:08:01.210Z,6.05
2023-04-22T15:10:31.040Z,8.73
2023-04-22T15:13:01.607Z,4.93
2023-04-22T15:15:33.794Z,6.78
2023-04-22T15:18:03.425Z,5.38
2023-04-22T15:20:33.105Z,8.73
2023-04-22T15:23:04.020Z,7.85
2023-04-22T15:25:33.616Z,6.78
2023-04-22T15:28:03.572Z,5.60
2023-04-22T15:30:35.730Z,7.25
2023-04-22T15:33:05.403Z,7.55
2023-04-22T15:35:35.029Z,5.13
2023-04-22T15:38:04.822Z,6.72
2023-04-22T15:40:34.392Z,9.05
2023-04-22T15:43:03.942Z,5.68
2023-04-22T15:45:37.095Z,7.43
2023-04-22T15:48:07.048Z,6.82
2023-04-22T15:50:38.878Z,7.03
2023-04-22T15:53:09.592Z,9.13
2023-04-22T15:55:39.155Z,7.00
2023-04-22T15:58:08.708Z,7.15
2023-04-22T16:00:41.280Z,7.40
2023-04-22T16:03:11.684Z,8.57
2023-04-22T16:05:41.350Z,6.22
2023-04-22T16:08:10.939Z,7.32
2023-04-22T16:10:40.466Z,8.15
2023-04-22T16:13:10.120Z,6.60
2023-04-22T16:15:42.324Z,5.90
2023-04-22T16:18:12.059Z,8.50
2023-04-22T16:20:41.811Z,9.25
2023-04-22T16:23:11.323Z,9.93
2023-04-22T16:25:41.083Z,8.90
2023-04-22T16:28:11.343Z,7.65
2023-04-22T16:30:43.560Z,7.20
2023-04-22T16:33:13.304Z,8.32
2023-04-22T16:35:44.293Z,7.85
2023-04-22T16:38:13.827Z,9.25
2023-04-22T16:40:43.352Z,9.45
2023-04-22T16:43:13.107Z,7.95
2023-04-22T16:45:45.413Z,8.65
2023-04-22T16:48:14.996Z,10.85
2023-04-22T16:50:44.714Z,8.73
2023-04-22T16:53:14.311Z,14.00
2023-04-22T16:55:43.850Z,12.85
2023-04-22T16:58:13.786Z,7.35
2023-04-22T17:00:47.575Z,6.40
2023-04-22T17:03:17.699Z,7.25
2023-04-22T17:05:47.295Z,8.52
2023-04-22T17:08:16.844Z,9.95
2023-04-22T17:10:48.321Z,9.63
2023-04-22T17:13:18.624Z,7.97
2023-04-22T17:15:50.855Z,9.82
2023-04-22T17:18:20.515Z,9.60
2023-04-22T17:20:50.078Z,8.85
2023-04-22T17:23:20.631Z,7.05
2023-04-22T17:25:50.202Z,10.32
2023-04-22T17:28:19.804Z,8.05
2023-04-22T17:30:54.520Z,8.45
2023-04-22T17:33:26.700Z,10.30
2023-04-22T17:35:56.252Z,7.95
2023-04-22T17:38:25.965Z,13.68
2023-04-22T17:40:55.533Z,9.55
2023-04-22T17:43:25.123Z,9.82
2023-04-22T17:45:57.363Z,6.97
2023-04-22T17:48:26.927Z,8.05
2023-04-22T17:50:56.540Z,13.68
2023-04-22T17:53:26.105Z,7.50
2023-04-22T17:55:55.664Z,6.75
2023-04-22T17:58:25.715Z,6.63
2023-04-22T18:00:58.790Z,16.02
2023-04-22T18:03:28.636Z,7.88
2023-04-22T18:05:58.246Z,10.65
2023-04-22T18:08:27.836Z,9.70
2023-04-22T18:10:57.741Z,11.40
2023-04-22T18:13:27.307Z,8.27
2023-04-22T18:15:59.432Z,8.95
2023-04-22T18:18:28.997Z,9.48
2023-04-22T18:20:58.621Z,9.35
2023-04-22T18:23:28.151Z,8.00
2023-04-22T18:25:57.755Z,10.85
2023-04-22T18:28:27.261Z,9.00
2023-04-22T18:30:59.474Z,9.45
2023-04-22T18:33:29.081Z,8.80
2023-04-22T18:36:00.056Z,9.68
2023-04-22T18:38:29.920Z,9.77
2023-04-22T18:40:59.567Z,12.63
2023-04-22T18:43:29.200Z,12.35
2023-04-22T18:46:01.367Z,12.93
2023-04-22T18:48:30.988Z,11.75
2023-04-22T18:51:00.541Z,11.95
2023-04-22T18:53:30.529Z,16.02
2023-04-22T18:56:00.086Z,9.85
2023-04-22T18:58:29.622Z,11.32
2023-04-22T19:01:01.902Z,12.63
2023-04-22T19:03:31.542Z,12.73
2023-04-22T19:06:01.262Z,12.60
2023-04-22T19:08:30.836Z,13.10
2023-04-22T19:11:00.381Z,12.65
2023-04-22T19:13:30.457Z,10.95
2023-04-22T19:16:02.859Z,12.48
2023-04-22T19:18:32.495Z,18.10
2023-04-22T19:21:03.111Z,13.82
2023-04-22T19:23:32.946Z,16.60
2023-04-22T19:26:02.579Z,14.75
2023-04-22T19:28:32.152Z,18.88
2023-04-22T19:31:05.032Z,15.05
2023-04-22T19:33:34.741Z,16.23
2023-04-22T19:36:04.296Z,13.10
2023-04-22T19:38:33.967Z,12.98
2023-04-22T19:41:03.660Z,12.45
2023-04-22T19:43:33.192Z,13.65
2023-04-22T19:46:05.488Z,13.85
2023-04-22T19:48:36.380Z,15.65
2023-04-22T19:51:08.042Z,31.80
2023-04-22T19:53:38.142Z,47.58
2023-04-22T19:56:07.946Z,130.77
2023-04-22T19:58:37.929Z,94.35
2023-04-22T20:01:10.459Z,100.97
2023-04-22T20:03:40.799Z,58.70
2023-04-22T20:06:11.012Z,61.35
2023-04-22T20:08:42.372Z,53.55
2023-04-22T20:11:12.712Z,41.67
2023-04-22T20:13:43.367Z,39.85
2023-04-22T20:16:16.293Z,32.05
2023-04-22T20:18:46.458Z,39.08
2023-04-22T20:21:16.666Z,45.83
2023-04-22T20:23:47.479Z,47.55
2023-04-22T20:26:21.148Z,54.35
2023-04-22T20:28:53.375Z,39.25
2023-04-22T20:31:25.851Z,38.78
2023-04-22T20:33:55.740Z,35.88
2023-04-22T20:36:26.669Z,31.88
2023-04-22T20:38:58.413Z,38.47
2023-04-22T20:41:29.686Z,64.35
2023-04-22T20:43:59.624Z,27.58
2023-04-22T20:46:32.155Z,41.00
2023-04-22T20:49:01.732Z,40.22
2023-04-22T20:51:32.051Z,38.38
2023-04-22T20:54:01.920Z,34.35
2023-04-22T20:56:32.137Z,32.25
2023-04-22T20:59:01.877Z,30.83
2023-04-22T21:01:34.050Z,29.25
2023-04-22T21:04:04.691Z,34.28
2023-04-22T21:06:36.659Z,30.42
2023-04-22T21:09:07.797Z,28.50
2023-04-22T21:11:38.142Z,23.98
2023-04-22T21:14:08.275Z,27.67
2023-04-22T21:16:43.791Z,34.25
2023-04-22T21:19:15.287Z,29.75
2023-04-22T21:21:46.848Z,31.80
2023-04-22T21:24:17.342Z,30.80
2023-04-22T21:26:49.420Z,33.45
2023-04-22T21:29:19.492Z,34.05
2023-04-22T21:32:01.460Z,33.42
2023-04-22T21:34:37.289Z,35.08
2023-04-22T21:37:08.338Z,34.85
2023-04-22T21:39:38.243Z,43.47
2023-04-22T21:42:08.959Z,31.38
2023-04-22T21:44:39.381Z,32.88
2023-04-22T21:47:11.688Z,30.75
2023-04-22T21:49:41.236Z,30.77
2023-04-22T21:52:10.818Z,32.22
2023-04-22T21:54:40.932Z,39.25
2023-04-22T21:57:10.721Z,31.38
2023-04-22T21:59:40.282Z,31.85
2023-04-22T22:02:12.424Z,30.55
2023-04-22T22:04:42.431Z,36.30
2023-04-22T22:07:12.460Z,38.47
2023-04-22T22:09:43.348Z,33.67
2023-04-22T22:12:15.599Z,34.70
2023-04-22T22:14:46.002Z,45.33
2023-04-22T22:17:19.811Z,37.10
2023-04-22T22:19:49.359Z,39.63
2023-04-22T22:22:18.900Z,37.25
2023-04-22T22:24:48.492Z,38.03
2023-04-22T22:27:18.112Z,36.80
2023-04-22T22:29:47.659Z,39.55
2023-04-22T22:32:19.783Z,38.45
2023-04-22T22:34:49.377Z,37.75
2023-04-22T22:37:19.002Z,40.85
2023-04-22T22:39:48.564Z,42.30
2023-04-22T22:42:18.378Z,38.00
2023-04-22T22:44:47.932Z,38.25
2023-04-22T22:47:20.387Z,37.10
2023-04-22T22:49:50.155Z,38.70
2023-04-22T22:52:19.748Z,40.47
2023-04-22T22:54:51.666Z,39.22
2023-04-22T22:57:21.193Z,39.38
2023-04-22T22:59:50.746Z,40.05
2023-04-22T23:02:22.981Z,42.28
2023-04-22T23:04:52.744Z,41.40
2023-04-22T23:07:22.517Z,33.30
2023-04-22T23:09:52.028Z,43.75
2023-04-22T23:12:21.833Z,41.47
2023-04-22T23:14:51.371Z,37.72
2023-04-22T23:17:23.685Z,39.03
2023-04-22T23:19:54.412Z,36.72
2023-04-22T23:22:24.981Z,43.35
2023-04-22T23:24:55.155Z,39.25
2023-04-22T23:27:25.671Z,35.13
2023-04-22T23:29:56.044Z,36.03
2023-04-22T23:32:29.964Z,32.63
2023-04-22T23:35:02.739Z,36.03
2023-04-22T23:37:32.725Z,31.42
2023-04-22T23:40:02.287Z,37.30
2023-04-22T23:42:31.815Z,37.58
2023-04-22T23:45:01.390Z,40.63
2023-04-22T23:47:33.911Z,40.22
2023-04-22T23:50:03.517Z,29.30
2023-04-22T23:52:33.105Z,35.13
2023-04-22T23:55:03.140Z,33.40
2023-04-22T23:57:33.317Z,38.60
